Flight Track Log - Related Links

Times and Time Zones

All times are in EDT time to prevent confusion due to time zone crossing. See the SWA1688 flight status page for this flight to view local times or setup timezone preferences in your user account.

Time Position Orientation Groundspeed Altitude Reporting Facility
EDT Latitude Longitude Course Direction KTS km/h feet Rate Location/Type
Mon 21:31:48 28.4333 -81.3000 41° Northeast 155 286 1.100  Level Orlando TRACON
Mon 21:32:07 28.4500 -81.2833 41° Northeast 153 283 1.800 2.354 Climbing Orlando TRACON
Mon 21:33:07 28.5000 -81.2667 16° North 237 439 4.200 2.900 Climbing Orlando TRACON
Mon 21:34:07 28.5667 -81.2667 360° North 269 499 7.600 3.450 Climbing Orlando TRACON
Mon 21:35:07 28.6333 -81.2833 348° North 271 502 11.100 3.256 Climbing Orlando TRACON
Mon 21:36:51 28.7872 -81.3194 348° North 324 600 16.500 3.220 Climbing Jacksonville Center
Mon 21:37:51 28.8794 -81.3442 347° North 336 623 19.900 3.200 Climbing Jacksonville Center
Mon 21:38:51 28.9797 -81.3639 350° North 348 644 22.900 1.550 Climbing Jacksonville Center
Mon 21:39:51 29.0822 -81.3839 350° North 360 666 23.000 9.050 Climbing Jacksonville Center
Mon 21:40:51 29.1869 -81.3989 353° North 370 686 41.000 3.400 Climbing Jacksonville Center
Mon 21:41:51 29.2831 -81.4092 355° North 364 674 29.800 -4.400 Descending Jacksonville Center
Mon 21:42:51 29.3792 -81.4222 353° North 359 665 32.200 2.100 Climbing Jacksonville Center
Mon 21:43:51 29.4814 -81.4278 357° North 359 665 34.000 1.700 Climbing Jacksonville Center
Mon 21:44:51 29.5881 -81.4381 355° North 365 676 35.600 1.350 Climbing Jacksonville Center
Mon 21:45:51 29.6947 -81.4486 355° North 376 697 36.700 1.300 Climbing Jacksonville Center
Mon 21:46:51 29.8075 -81.4589 355° North 388 719 38.200 1.450 Climbing Jacksonville Center
Mon 21:47:51 29.9161 -81.4692 355° North 388 719 39.600 1.400 Climbing Jacksonville Center
Mon 21:48:51 30.0228 -81.4794 355° North 388 719 41.000 700 Climbing Jacksonville Center
Mon 21:49:51 30.1336 -81.4853 357° North 388 719 41.000  Level Jacksonville Center
Mon 21:50:52 30.2461 -81.4692 North 388 719 41.000  Level Jacksonville Center
Mon 21:51:51 30.3608 -81.4531 North 400 740 41.000  Level Jacksonville Center
Mon 21:52:51 30.4858 -81.4367 North 412 763 41.000  Level Jacksonville Center
Mon 21:53:51 30.6003 -81.4181 North 412 763 41.000  Level Jacksonville Center
Mon 21:54:51 30.7131 -81.4042 North 412 763 41.000  Level Jacksonville Center
Mon 21:55:51 30.8275 -81.3878 North 412 763 41.000  Level Jacksonville Center
Mon 21:56:51 30.9444 -81.3714 North 412 763 41.000  Level Jacksonville Center
Mon 21:57:51 31.0569 -81.3575 North 412 763 41.000  Level Jacksonville Center
Mon 21:58:51 31.1717 -81.3411 North 407 753 41.000  Level Jacksonville Center
Mon 21:59:51 31.2842 -81.3247 North 407 753 41.000  Level Jacksonville Center
Mon 22:00:51 31.3861 -81.3083 North 407 753 41.000  Level Jacksonville Center
Mon 22:01:51 31.5131 -81.2769 12° North 407 753 41.000  Level Jacksonville Center
Mon 22:02:51 31.6147 -81.2189 26° Northeast 432 800 41.000  Level Jacksonville Center
Mon 22:03:51 31.7392 -81.1483 26° Northeast 447 827 41.000  Level Jacksonville Center
Mon 22:04:51 31.8489 -81.0828 27° Northeast 447 827 41.000  Level Jacksonville Center
Mon 22:05:51 31.9481 -81.0219 27° Northeast 447 827 41.000  Level Jacksonville Center
Mon 22:06:51 32.0744 -80.9508 25° Northeast 446 826 41.000  Level Jacksonville Center
Mon 22:07:51 32.1758 -80.8947 25° Northeast 445 824 41.000 -350 Level Jacksonville Center
Mon 22:08:51 32.2978 -80.8231 26° Northeast 442 819 40.300 -1.000 Descending Jacksonville Center
Mon 22:09:51 32.4053 -80.7617 26° Northeast 436 808 39.000 -650 Descending Jacksonville Center
Mon 22:10:51 32.5025 -80.7003 28° Northeast 431 798 39.000  Level Jacksonville Center
Mon 22:11:51 32.6078 -80.6411 25° Northeast 420 777 39.000  Level Jacksonville Center
Mon 22:12:51 32.7175 -80.5814 25° Northeast 420 777 39.000  Level Jacksonville Center
Mon 22:13:51 32.8228 -80.5244 24° Northeast 420 777 39.000  Level Jacksonville Center
Mon 22:14:51 32.9303 -80.4672 24° Northeast 420 777 39.000  Level Jacksonville Center
Mon 22:15:51 33.0356 -80.4072 26° Northeast 414 766 39.000  Level Jacksonville Center
Mon 22:16:51 33.1450 -80.3497 24° Northeast 420 777 39.000  Level Jacksonville Center
Mon 22:17:51 33.2647 -80.2842 25° Northeast 420 777 39.000  Level Jacksonville Center
Mon 22:18:51 33.3742 -80.2236 25° Northeast 420 777 39.000  Level Jacksonville Center
Mon 22:19:51 33.4772 -80.1633 26° Northeast 414 766 39.000  Level Jacksonville Center
Mon 22:20:51 33.5864 -80.1028 25° Northeast 414 766 39.000  Level Jacksonville Center
Mon 22:21:51 33.6936 -80.0419 25° Northeast 414 766 39.000  Level Jacksonville Center
Mon 22:22:51 33.8008 -79.9808 25° Northeast 414 766 39.000  Level Jacksonville Center
Mon 22:23:51 33.9100 -79.9197 25° Northeast 414 766 39.000  Level Jacksonville Center
Mon 22:26:03 34.1206 -79.8011 25° Northeast 413 764 39.000  Level Washington Center
Mon 22:27:03 34.2442 -79.7269 26° Northeast 424 785 39.000  Level Washington Center
Mon 22:28:01 34.3528 -79.6669 25° Northeast 429 795 39.000  Level Washington Center
Mon 22:29:01 34.4633 -79.6069 24° Northeast 429 795 39.000  Level Washington Center
Mon 22:30:01 34.5681 -79.5264 32° Northeast 434 803 39.000  Level Washington Center
Mon 22:31:01 34.6711 -79.4431 34° Northeast 440 814 39.000  Level Washington Center
Mon 22:32:02 34.7758 -79.3594 33° Northeast 445 824 39.000  Level Washington Center
Mon 22:33:03 34.8767 -79.2781 34° Northeast 445 824 39.000  Level Washington Center
Mon 22:34:01 34.9836 -79.1917 33° Northeast 445 824 39.000  Level Washington Center
Mon 22:35:03 35.0883 -79.1100 33° Northeast 445 824 39.000  Level Washington Center
Mon 22:36:01 35.1928 -79.0256 33° Northeast 445 824 39.000  Level Washington Center
Mon 22:37:02 35.2975 -78.9436 33° Northeast 445 824 39.000  Level Washington Center
Mon 22:38:01 35.4022 -78.8564 34° Northeast 445 824 39.000  Level Washington Center
Mon 22:39:01 35.5067 -78.7764 32° Northeast 445 824 39.000  Level Washington Center
Mon 22:40:00 35.5964 -78.6956 36° Northeast 451 835 39.000  Level Washington Center
Mon 22:41:01 35.7028 -78.6153 31° Northeast 451 835 39.000  Level Washington Center
Mon 22:42:01 35.8050 -78.5294 34° Northeast 446 826 39.000  Level Washington Center
Mon 22:43:03 35.9072 -78.4461 33° Northeast 441 816 39.000  Level Washington Center
Mon 22:44:01 36.0072 -78.3625 34° Northeast 441 816 39.000  Level Washington Center
Mon 22:45:01 36.1072 -78.2761 35° Northeast 441 816 39.000  Level Washington Center
Mon 22:46:02 36.2092 -78.1944 33° Northeast 436 808 39.000  Level Washington Center
Mon 22:47:02 36.3133 -78.1078 34° Northeast 436 808 39.000  Level Washington Center
Mon 22:48:02 36.4131 -78.0258 33° Northeast 436 808 39.000  Level Washington Center
Mon 22:49:03 36.5108 -77.9383 36° Northeast 430 797 39.000  Level Washington Center
Mon 22:50:01 36.6125 -77.8561 33° Northeast 435 806 39.000  Level Washington Center
Mon 22:51:02 36.7142 -77.7683 35° Northeast 435 806 39.000  Level Washington Center
Mon 22:52:03 36.8117 -77.6828 35° Northeast 430 797 39.000  Level Washington Center
Mon 22:53:03 36.9156 -77.5947 34° Northeast 435 806 39.000  Level Washington Center
Mon 22:54:01 37.0150 -77.5089 35° Northeast 435 806 39.000  Level Washington Center
Mon 22:55:02 37.1164 -77.4228 34° Northeast 435 806 39.000  Level Washington Center
Mon 22:56:03 37.2178 -77.3367 34° Northeast 435 806 39.000  Level Washington Center
Mon 22:57:01 37.3211 -77.2503 34° Northeast 435 806 39.000  Level Washington Center
Mon 22:58:02 37.4353 -77.1481 35° Northeast 435 806 39.000  Level Washington Center
Mon 22:59:02 37.5300 -77.0689 34° Northeast 453 838 39.000  Level Washington Center
Mon 23:00:00 37.6314 -76.9789 35° Northeast 453 838 39.000  Level Washington Center
Mon 23:01:01 37.7325 -76.8889 35° Northeast 453 838 39.000  Level Washington Center
Mon 23:02:02 37.8356 -76.7961 35° Northeast 453 838 39.000  Level Washington Center
Mon 23:03:03 37.9386 -76.7081 34° Northeast 453 838 39.000  Level Washington Center
Mon 23:04:01 38.0394 -76.6172 35° Northeast 448 830 39.000  Level Washington Center
Mon 23:05:01 38.1425 -76.5264 35° Northeast 448 830 39.000  Level Washington Center
Mon 23:06:01 38.2453 -76.4378 34° Northeast 448 830 39.000  Level Washington Center
Mon 23:07:02 38.3439 -76.3489 35° Northeast 441 816 39.000  Level Washington Center
Mon 23:08:00 38.4444 -76.2597 35° Northeast 441 816 39.000  Level Washington Center
Mon 23:09:01 38.5450 -76.1678 36° Northeast 441 816 39.000  Level Washington Center
Mon 23:10:03 38.6517 -76.0756 34° Northeast 450 834 39.000  Level Washington Center
Mon 23:11:01 38.7522 -75.9831 36° Northeast 450 834 39.000  Level Washington Center
Mon 23:12:02 38.8544 -75.8903 35° Northeast 445 824 39.000  Level Washington Center
Mon 23:13:03 38.9547 -75.7972 36° Northeast 445 824 39.000  Level Washington Center
Mon 23:14:03 39.0592 -75.7039 35° Northeast 445 824 39.000  Level Washington Center
Mon 23:15:01 39.1614 -75.6103 35° Northeast 445 824 39.000  Level Washington Center
Mon 23:16:02 39.2633 -75.5167 35° Northeast 445 824 39.000  Level Washington Center
Mon 23:17:02 39.3656 -75.4197 36° Northeast 445 824 39.000  Level Washington Center
Mon 23:18:03 39.4694 -75.3253 35° Northeast 450 834 39.000  Level Washington Center
Mon 23:19:03 39.5756 -75.2253 36° Northeast 450 834 39.000  Level Washington Center
Mon 23:20:01 39.6792 -75.1278 36° Northeast 450 834 39.000 -252 Level Washington Center
Mon 23:21:02 39.7956 -75.0189 36° Northeast 459 850 38.500 -1.143 Descending Washington Center
Mon 23:23:31 40.0253 -74.7583 41° Northeast 469 869 35.000 -1.000 Descending New York Center
Mon 23:24:32 40.1108 -74.6331 48° Northeast 459 850 35.000  Level New York Center
Mon 23:25:30 40.1958 -74.5153 47° Northeast 453 838 35.000  Level New York Center
Mon 23:26:31 40.2983 -74.4394 29° Northeast 427 790 35.000  Level New York Center
Mon 23:27:29 40.4161 -74.4075 12° North 416 771 35.000  Level New York Center
Mon 23:28:32 40.5336 -74.3808 10° North 416 771 35.000  Level New York Center
Mon 23:29:29 40.6511 -74.3489 12° North 421 779 35.000 -59 Level New York Center
Mon 23:31:56 40.9536 -74.2758 10° North 441 816 34.800 -870 Descending Boston Center
Mon 23:32:56 41.0731 -74.2436 11° North 430 797 32.000 -2.700 Descending Boston Center
Mon 23:33:56 41.1900 -74.2164 10° North 430 797 29.400 -2.450 Descending Boston Center
Mon 23:34:56 41.3011 -74.1864 11° North 421 779 27.100 -1.700 Descending Boston Center
Mon 23:35:56 41.4036 -74.1558 13° North 396 734 26.000 -700 Descending Boston Center
Mon 23:36:56 41.5019 -74.1336 10° North 381 705 25.700 -750 Descending Boston Center
Mon 23:37:56 41.6003 -74.1086 11° North 365 676 24.500 -1.250 Descending Boston Center
Mon 23:38:56 41.6903 -74.0831 12° North 347 642 23.200 -2.200 Descending Boston Center
Mon 23:39:56 41.7844 -74.0606 10° North 335 621 20.100 -2.273 Descending Boston Center
Mon 23:41:08 41.8681 -74.0375 12° North 329 610 18.200 -1.900 Descending Boston Center
Mon 23:41:56 41.9497 -74.0200 North 304 563 16.300 -2.139 Descending Boston Center
Mon 23:43:03 42.0439 -73.9944 11° North 295 546 14.100 -1.969 Descending Boston Center
Mon 23:44:04 42.1233 -73.9711 12° North 294 544 12.100 -1.587 Descending Boston Center
Mon 23:45:04 42.2006 -73.9506 11° North 287 531 10.900 -1.388 Descending Boston Center
Mon 23:46:05 42.2739 -73.9300 12° North 268 496 9.300 -1.537 Descending Boston Center
Mon 23:47:05 42.3450 -73.9147 North 255 472 7.800 -1.686 Descending Boston Center
Mon 23:48:06 42.4161 -73.8856 17° North 248 459 5.900 -1.875 Descending Boston Center
Mon 23:49:13 42.4894 -73.8619 13° North 244 452 3.800 -1.559 Descending Boston Center
Mon 23:50:13 42.5503 -73.8408 14° North 230 426 2.600 -645 Descending Boston Center
Mon 23:51:14 42.6044 -73.8222 14° North 194 359 2.500 -248 Descending Boston Center
Mon 23:52:14 42.6486 -73.8036 17° North 173 320 2.100 -595 Descending Boston Center
Mon 23:53:15 42.6881 -73.8044 359° North 120 222 1.300 -689 Descending Boston Center
Mon 23:54:16 42.7214 -73.8078 356° North 108 200 700 -590 Descending Boston Center

Login

Don't have an account? Register now (free) for customized features, flight alerts, and more!